createdAt,value
2018-11-21T00:00:17.765Z,16.20
2018-11-21T00:02:47.622Z,15.80
2018-11-21T00:05:16.966Z,16.37
2018-11-21T00:07:46.307Z,16.70
2018-11-21T00:10:15.609Z,17.07
2018-11-21T00:12:50.306Z,18.03
2018-11-21T00:15:19.611Z,19.60
2018-11-21T00:17:49.211Z,15.37
2018-11-21T00:20:18.507Z,15.20
2018-11-21T00:22:47.882Z,17.97
2018-11-21T00:25:17.160Z,16.83
2018-11-21T00:27:46.460Z,17.03
2018-11-21T00:30:16.513Z,17.47
2018-11-21T00:32:45.847Z,15.57
2018-11-21T00:35:15.184Z,18.70
2018-11-21T00:37:44.460Z,14.83
2018-11-21T00:40:14.880Z,18.67
2018-11-21T00:42:46.811Z,15.67
2018-11-21T00:45:13.481Z,17.07
2018-11-21T00:47:42.744Z,18.10
2018-11-21T00:50:12.060Z,15.90
2018-11-21T00:52:41.335Z,17.40
2018-11-21T00:55:10.687Z,13.87
2018-11-21T00:57:40.083Z,14.40
2018-11-21T01:00:10.412Z,15.23
2018-11-21T01:02:39.777Z,16.00
2018-11-21T01:05:09.122Z,18.13
2018-11-21T01:07:38.414Z,21.03
2018-11-21T01:10:07.762Z,20.40
2018-11-21T01:12:37.118Z,20.40
2018-11-21T01:15:06.625Z,16.63
2018-11-21T01:17:38.355Z,21.07
2018-11-21T01:20:08.346Z,17.70
2018-11-21T01:22:37.665Z,18.37
2018-11-21T01:25:07.561Z,18.17
2018-11-21T01:27:36.853Z,17.13
2018-11-21T01:30:06.850Z,18.93
2018-11-21T01:32:36.340Z,17.57
2018-11-21T01:35:06.282Z,19.47
2018-11-21T01:37:35.594Z,17.70
2018-11-21T01:40:08.263Z,16.87
2018-11-21T01:42:34.930Z,14.97
2018-11-21T01:45:04.598Z,19.10
2018-11-21T01:47:33.919Z,17.43
2018-11-21T01:50:03.154Z,14.60
2018-11-21T01:52:32.610Z,16.53
2018-11-21T01:55:01.922Z,16.50
2018-11-21T01:57:31.247Z,17.50
2018-11-21T02:00:00.630Z,16.77
2018-11-21T02:02:29.943Z,16.40
2018-11-21T02:04:59.336Z,17.40
2018-11-21T02:07:28.634Z,15.97
2018-11-21T02:09:57.893Z,16.93
2018-11-21T02:12:27.136Z,17.87
2018-11-21T02:14:56.409Z,15.57
2018-11-21T02:17:25.724Z,14.97
2018-11-21T02:19:55.042Z,16.50
2018-11-21T02:22:24.323Z,17.60
2018-11-21T02:24:53.660Z,15.43
2018-11-21T02:27:22.963Z,14.10
2018-11-21T02:29:52.291Z,14.90
2018-11-21T02:32:21.579Z,15.70
2018-11-21T02:34:50.888Z,15.63
2018-11-21T02:37:20.146Z,16.77
2018-11-21T02:39:49.447Z,15.13
2018-11-21T02:42:18.745Z,13.37
2018-11-21T02:44:47.986Z,15.53
2018-11-21T02:47:17.282Z,16.50
2018-11-21T02:49:46.607Z,14.97
2018-11-21T02:52:15.935Z,17.00
2018-11-21T02:54:45.205Z,16.60
2018-11-21T02:57:16.513Z,15.23
2018-11-21T02:59:46.055Z,14.73
2018-11-21T03:02:15.412Z,14.77
2018-11-21T03:04:44.663Z,15.97
2018-11-21T03:07:14.016Z,16.83
2018-11-21T03:09:43.367Z,13.23
2018-11-21T03:12:12.670Z,14.50
2018-11-21T03:14:41.948Z,14.80
2018-11-21T03:17:11.211Z,16.73
2018-11-21T03:19:40.509Z,14.20
2018-11-21T03:22:09.874Z,15.50
2018-11-21T03:24:39.221Z,16.27
2018-11-21T03:27:08.558Z,16.43
2018-11-21T03:29:37.839Z,17.00
2018-11-21T03:32:07.127Z,14.63
2018-11-21T03:34:36.401Z,17.10
2018-11-21T03:37:05.771Z,16.63
2018-11-21T03:39:35.039Z,15.00
2018-11-21T03:42:04.517Z,14.47
2018-11-21T03:44:33.831Z,17.37
2018-11-21T03:47:03.109Z,12.77
2018-11-21T03:49:32.374Z,14.13
2018-11-21T03:52:01.625Z,13.43
2018-11-21T03:54:30.933Z,14.80
2018-11-21T03:57:00.232Z,16.60
2018-11-21T03:59:29.580Z,15.10
2018-11-21T04:01:58.978Z,17.83
2018-11-21T04:04:28.282Z,15.67
2018-11-21T04:06:57.590Z,14.90
2018-11-21T04:09:26.933Z,14.93
2018-11-21T04:11:56.188Z,13.30
2018-11-21T04:14:25.500Z,14.30
2018-11-21T04:16:54.747Z,17.97
2018-11-21T04:19:24.063Z,15.20
2018-11-21T04:21:53.451Z,15.73
2018-11-21T04:24:22.692Z,13.60
2018-11-21T04:26:52.008Z,15.57
2018-11-21T04:29:21.277Z,15.80
2018-11-21T04:31:50.574Z,15.70
2018-11-21T04:34:19.918Z,16.10
2018-11-21T04:36:49.228Z,17.27
2018-11-21T04:39:18.494Z,16.80
2018-11-21T04:41:47.809Z,14.27
2018-11-21T04:44:17.153Z,15.77
2018-11-21T04:46:46.431Z,15.13
2018-11-21T04:49:15.792Z,14.90
2018-11-21T04:51:45.232Z,16.23
2018-11-21T04:54:14.548Z,15.80
2018-11-21T04:56:43.830Z,16.50
2018-11-21T04:59:13.058Z,18.10
2018-11-21T05:01:42.347Z,19.67
2018-11-21T05:04:11.625Z,14.83
2018-11-21T05:06:40.903Z,15.00
2018-11-21T05:09:11.402Z,15.20
2018-11-21T05:11:40.743Z,16.13
2018-11-21T05:14:10.122Z,14.80
2018-11-21T05:16:39.385Z,17.40
2018-11-21T05:19:08.664Z,16.63
2018-11-21T05:21:38.099Z,14.13
2018-11-21T05:24:07.391Z,19.13
2018-11-21T05:26:36.642Z,15.63
2018-11-21T05:29:05.999Z,16.37
2018-11-21T05:31:35.351Z,14.97
2018-11-21T05:34:04.648Z,15.93
2018-11-21T05:36:33.910Z,15.20
2018-11-21T05:39:03.234Z,17.57
2018-11-21T05:41:32.705Z,14.23
2018-11-21T05:44:02.063Z,15.57
2018-11-21T05:46:31.477Z,17.33
2018-11-21T05:49:00.779Z,16.43
2018-11-21T05:51:32.553Z,15.93
2018-11-21T05:54:01.851Z,14.83
2018-11-21T05:56:31.212Z,19.77
2018-11-21T05:59:00.479Z,17.80
2018-11-21T06:01:29.793Z,14.87
2018-11-21T06:03:59.143Z,14.87
2018-11-21T06:06:28.414Z,17.33
2018-11-21T06:08:57.675Z,16.43
2018-11-21T06:11:27.025Z,18.20
2018-11-21T06:13:56.349Z,16.03
2018-11-21T06:16:25.733Z,20.27
2018-11-21T06:18:55.028Z,16.20
2018-11-21T06:21:24.315Z,14.87
2018-11-21T06:23:53.587Z,19.37
2018-11-21T06:26:22.979Z,14.50
2018-11-21T06:28:52.378Z,16.67
2018-11-21T06:31:21.894Z,16.17
2018-11-21T06:33:51.157Z,16.13
2018-11-21T06:36:20.425Z,16.50
2018-11-21T06:38:49.791Z,18.07
2018-11-21T06:41:19.106Z,16.83
2018-11-21T06:43:50.197Z,15.50
2018-11-21T06:46:17.758Z,19.10
2018-11-21T06:48:47.088Z,14.33
2018-11-21T06:51:16.351Z,14.47
2018-11-21T06:53:45.793Z,16.50
2018-11-21T06:56:15.066Z,18.73
2018-11-21T06:58:44.438Z,17.93
2018-11-21T07:01:13.803Z,18.00
2018-11-21T07:03:43.166Z,16.90
2018-11-21T07:06:12.417Z,17.63
2018-11-21T07:08:41.689Z,16.97
2018-11-21T07:11:11.015Z,17.77
2018-11-21T07:13:40.552Z,15.83
2018-11-21T07:16:09.807Z,13.77
2018-11-21T07:18:39.233Z,15.27
2018-11-21T07:21:08.487Z,17.50
2018-11-21T07:23:37.795Z,16.03
2018-11-21T07:26:07.441Z,19.23
2018-11-21T07:28:36.839Z,17.30
2018-11-21T07:31:06.289Z,16.03
2018-11-21T07:33:35.939Z,16.13
2018-11-21T07:36:05.366Z,16.40
2018-11-21T07:38:34.654Z,18.73
2018-11-21T07:41:03.968Z,17.13
2018-11-21T07:43:33.278Z,13.93
2018-11-21T07:46:02.588Z,18.90
2018-11-21T07:48:31.837Z,18.63
2018-11-21T07:51:02.482Z,17.47
2018-11-21T07:53:30.583Z,16.60
2018-11-21T07:55:59.886Z,15.23
2018-11-21T07:58:29.292Z,13.80
2018-11-21T08:01:28.173Z,17.00
2018-11-21T08:04:06.218Z,15.10
2018-11-21T08:06:57.493Z,17.30
2018-11-21T08:10:00.869Z,15.00
2018-11-21T08:12:55.377Z,16.07
2018-11-21T08:15:49.662Z,17.20
2018-11-21T08:18:36.691Z,16.77
2018-11-21T08:21:17.267Z,14.90
2018-11-21T08:23:56.973Z,17.97
2018-11-21T08:26:46.350Z,16.80
2018-11-21T08:29:15.641Z,17.30
2018-11-21T08:31:44.897Z,15.60
2018-11-21T08:34:14.229Z,18.80
2018-11-21T08:36:43.515Z,16.73
2018-11-21T08:39:12.862Z,16.13
2018-11-21T08:41:42.175Z,15.63
2018-11-21T08:44:11.579Z,16.00
2018-11-21T08:46:40.853Z,14.50
2018-11-21T08:49:10.129Z,17.60
2018-11-21T08:51:39.520Z,15.83
2018-11-21T08:54:09.439Z,14.80
2018-11-21T08:56:41.387Z,16.97
2018-11-21T08:59:09.484Z,14.57
2018-11-21T09:01:39.057Z,17.07
2018-11-21T09:14:03.869Z,15.70
2018-11-21T09:16:33.168Z,14.40
2018-11-21T09:19:02.476Z,15.50
2018-11-21T09:21:31.820Z,13.57
2018-11-21T09:24:01.121Z,14.63
2018-11-21T09:26:30.397Z,16.20
2018-11-21T09:28:59.724Z,14.90
2018-11-21T09:31:28.995Z,13.80
2018-11-21T10:06:27.828Z,18.05
2018-11-21T10:13:59.449Z,13.85
2018-11-21T10:16:28.743Z,14.63
2018-11-21T10:18:59.008Z,13.57
2018-11-21T10:21:29.893Z,12.47
2018-11-21T10:23:59.268Z,14.93
2018-11-21T10:26:30.525Z,13.67
2018-11-21T10:28:59.868Z,11.70
2018-11-21T10:31:29.129Z,14.20
2018-11-21T10:33:58.430Z,11.57
2018-11-21T10:36:27.660Z,14.40
2018-11-21T10:38:56.943Z,10.77
2018-11-21T10:41:26.193Z,14.77
2018-11-21T10:43:55.630Z,11.03
2018-11-21T10:46:24.931Z,13.63
2018-11-21T10:48:54.173Z,14.30
2018-11-21T10:51:23.409Z,12.70
2018-11-21T10:53:52.844Z,12.53
2018-11-21T10:56:22.112Z,12.90
2018-11-21T10:58:51.478Z,12.17
2018-11-21T11:01:38.110Z,11.93
2018-11-21T11:04:20.195Z,11.13
2018-11-21T11:07:06.773Z,12.47
2018-11-21T11:09:55.225Z,12.47
2018-11-21T11:12:41.824Z,13.47
2018-11-21T11:15:32.822Z,14.83
2018-11-21T11:18:21.226Z,14.70
2018-11-21T11:21:08.199Z,18.60
2018-11-21T11:24:04.202Z,13.00
2018-11-21T11:27:01.420Z,13.10
2018-11-21T11:29:41.640Z,11.33
2018-11-21T11:32:16.999Z,15.40
2018-11-21T11:35:10.793Z,11.87
2018-11-21T11:37:57.679Z,10.20
2018-11-21T11:40:44.486Z,9.90
2018-11-21T11:43:31.355Z,10.13
2018-11-21T11:46:18.622Z,11.77
2018-11-21T11:49:08.859Z,12.77
2018-11-21T11:51:55.546Z,12.63
2018-11-21T11:54:37.329Z,12.63
2018-11-21T11:57:16.508Z,14.40
2018-11-21T12:00:13.602Z,11.27
2018-11-21T12:03:10.612Z,13.83
2018-11-21T12:06:08.102Z,11.60
2018-11-21T12:09:05.590Z,13.13
2018-11-21T12:11:52.277Z,14.23
2018-11-21T12:14:40.727Z,11.40
2018-11-21T12:17:40.837Z,10.67
2018-11-21T12:20:50.143Z,13.10
2018-11-21T12:23:44.163Z,14.00
2018-11-21T12:26:31.206Z,13.63
2018-11-21T12:29:21.071Z,15.13
2018-11-21T12:32:21.691Z,11.00
2018-11-21T12:35:08.593Z,13.40
2018-11-21T12:38:02.536Z,13.77
2018-11-21T12:40:49.332Z,13.57
2018-11-21T12:55:13.442Z,12.27
2018-11-21T12:57:50.584Z,12.30
2018-11-21T13:00:41.789Z,12.10
2018-11-21T13:03:20.122Z,14.05
2018-11-21T13:06:14.216Z,12.53
2018-11-21T13:09:05.527Z,10.23
2018-11-21T13:11:53.968Z,13.70
2018-11-21T13:14:40.857Z,11.57
2018-11-21T13:17:38.207Z,11.23
2018-11-21T13:20:35.414Z,11.30
2018-11-21T13:23:16.415Z,12.60
2018-11-21T13:26:03.116Z,11.40
2018-11-21T13:31:42.470Z,13.80
2018-11-21T13:37:13.753Z,11.50
2018-11-21T13:40:02.197Z,11.30
2018-11-21T13:42:48.758Z,13.95
2018-11-21T13:45:36.142Z,14.30
2018-11-21T13:48:21.178Z,12.00
2018-11-21T13:51:09.760Z,11.80
2018-11-21T13:53:58.153Z,11.83
2018-11-21T13:56:27.607Z,11.55
2018-11-21T13:58:57.091Z,10.15
2018-11-21T14:58:20.549Z,9.33
2018-11-21T15:00:49.899Z,12.00
2018-11-21T15:03:19.126Z,12.93
2018-11-21T15:05:48.418Z,12.47
2018-11-21T15:08:17.740Z,12.03
2018-11-21T15:10:46.998Z,10.73
2018-11-21T15:13:16.317Z,12.70
2018-11-21T15:15:45.529Z,14.17
2018-11-21T15:18:14.826Z,11.37
2018-11-21T15:20:44.116Z,12.33
2018-11-21T15:23:13.496Z,12.30
2018-11-21T15:25:42.888Z,12.30
2018-11-21T15:28:12.202Z,11.53
2018-11-21T15:30:41.495Z,12.20
2018-11-21T15:33:10.916Z,11.03
2018-11-21T15:35:40.275Z,12.13
2018-11-21T15:38:09.560Z,11.20
2018-11-21T15:40:38.887Z,11.90
2018-11-21T15:43:08.174Z,17.23
2018-11-21T16:57:46.326Z,12.10
2018-11-21T17:00:20.698Z,14.77
2018-11-21T17:02:50.003Z,13.20
2018-11-21T17:05:20.490Z,14.57
2018-11-21T17:07:49.908Z,14.70
2018-11-21T17:17:50.982Z,14.40
2018-11-21T17:20:24.738Z,12.60
2018-11-21T17:22:55.194Z,15.60
2018-11-21T17:25:26.544Z,18.27
2018-11-21T17:27:55.938Z,14.63
2018-11-21T17:30:25.434Z,16.77
2018-11-21T17:32:54.725Z,18.10
2018-11-21T17:35:24.480Z,18.77
2018-11-21T17:37:54.677Z,15.43
2018-11-21T17:40:32.382Z,15.70
2018-11-21T17:42:59.102Z,17.47
2018-11-21T17:45:28.430Z,19.53
2018-11-21T17:47:57.775Z,17.03
2018-11-21T17:50:27.077Z,15.53
2018-11-21T17:52:57.551Z,19.80
2018-11-21T17:55:28.303Z,17.17
2018-11-21T17:57:57.707Z,21.67
2018-11-21T18:00:28.494Z,20.23
2018-11-21T18:02:57.779Z,23.33
2018-11-21T18:05:28.863Z,18.30
2018-11-21T18:07:58.140Z,19.90
2018-11-21T18:10:29.151Z,16.00
2018-11-21T18:12:58.568Z,18.33
2018-11-21T18:15:27.940Z,18.13
2018-11-21T18:17:57.254Z,17.77
2018-11-21T18:20:26.589Z,18.40
2018-11-21T18:22:55.912Z,19.03
2018-11-21T18:25:27.065Z,18.43
2018-11-21T18:27:56.580Z,18.50
2018-11-21T18:30:26.161Z,19.47
2018-11-21T18:32:55.524Z,22.93
2018-11-21T18:35:25.199Z,22.47
